createdAt,value
2022-12-12T00:01:27.860Z,21.48
2022-12-12T00:03:54.772Z,21.67
2022-12-12T00:06:22.461Z,23.20
2022-12-12T00:08:49.561Z,22.88
2022-12-12T00:11:16.577Z,22.05
2022-12-12T00:13:43.642Z,19.58
2022-12-12T00:16:11.254Z,21.02
2022-12-12T00:18:38.199Z,20.65
2022-12-12T00:21:08.039Z,20.27
2022-12-12T00:26:06.403Z,19.02
2022-12-12T00:28:33.683Z,20.13
2022-12-12T00:31:00.627Z,19.27
2022-12-12T00:33:27.425Z,20.65
2022-12-12T00:35:55.386Z,22.85
2022-12-12T00:38:23.582Z,24.30
2022-12-12T00:40:55.073Z,22.50
2022-12-12T00:43:21.749Z,22.75
2022-12-12T00:45:48.307Z,23.15
2022-12-12T00:48:15.118Z,24.15
2022-12-12T00:50:41.761Z,24.52
2022-12-12T00:53:08.726Z,24.17
2022-12-12T00:55:35.999Z,23.63
2022-12-12T00:58:02.791Z,25.35
2022-12-12T01:00:29.531Z,24.08
2022-12-12T01:02:57.862Z,24.90
2022-12-12T01:05:25.838Z,24.40
2022-12-12T01:07:52.991Z,24.85
2022-12-12T01:10:20.634Z,24.02
2022-12-12T01:12:47.355Z,23.58
2022-12-12T01:15:14.434Z,23.58
2022-12-12T01:17:41.238Z,21.63
2022-12-12T01:20:17.313Z,23.00
2022-12-12T01:22:44.136Z,21.58
2022-12-12T01:25:12.644Z,21.58
2022-12-12T01:27:39.575Z,21.30
2022-12-12T01:30:07.552Z,22.00
2022-12-12T01:32:34.539Z,21.48
2022-12-12T01:35:01.269Z,22.13
2022-12-12T01:37:28.157Z,21.00
2022-12-12T01:39:54.887Z,21.35
2022-12-12T01:42:23.526Z,22.73
2022-12-12T01:44:52.679Z,21.95
2022-12-12T01:47:22.313Z,16.27
2022-12-12T01:50:08.220Z,20.75
2022-12-12T01:52:43.158Z,19.48
2022-12-12T01:55:15.718Z,21.05
2022-12-12T01:57:47.272Z,20.52
2022-12-12T02:00:15.621Z,20.15
2022-12-12T02:02:46.278Z,20.05
2022-12-12T02:05:23.090Z,18.52
2022-12-12T02:07:50.159Z,18.92
2022-12-12T02:10:16.825Z,16.80
2022-12-12T02:12:43.669Z,18.67
2022-12-12T02:15:11.148Z,18.58
2022-12-12T02:17:46.505Z,16.20
2022-12-12T02:20:44.348Z,18.23
2022-12-12T02:23:55.651Z,16.13
2022-12-12T02:26:44.073Z,15.88
2022-12-12T02:29:28.735Z,15.43
2022-12-12T02:32:05.053Z,16.70
2022-12-12T02:35:31.083Z,16.05
2022-12-12T02:38:15.095Z,17.08
2022-12-12T02:40:55.892Z,14.40
2022-12-12T02:43:33.574Z,16.00
2022-12-12T02:46:26.842Z,15.20
2022-12-12T02:49:18.812Z,14.90
2022-12-12T02:51:46.130Z,14.68
2022-12-12T02:54:19.502Z,16.60
2022-12-12T02:56:47.600Z,15.55
2022-12-12T02:59:31.573Z,16.33
2022-12-12T03:02:33.005Z,15.88
2022-12-12T03:05:39.743Z,14.40
2022-12-12T03:08:52.903Z,14.43
2022-12-12T03:11:26.531Z,15.30
2022-12-12T03:13:58.960Z,16.63
2022-12-12T03:16:32.738Z,16.65
2022-12-12T03:19:24.382Z,15.32
2022-12-12T03:22:00.250Z,14.05
2022-12-12T03:24:38.561Z,15.57
2022-12-12T03:27:16.705Z,14.73
2022-12-12T03:29:48.341Z,15.55
2022-12-12T03:32:24.684Z,14.60
2022-12-12T03:35:09.739Z,14.25
2022-12-12T03:37:46.044Z,14.45
2022-12-12T03:40:25.152Z,14.00
2022-12-12T03:43:06.843Z,14.68
2022-12-12T03:45:47.688Z,11.45
2022-12-12T03:48:17.370Z,12.43
2022-12-12T03:50:55.079Z,12.65
2022-12-12T03:53:39.168Z,13.40
2022-12-12T03:56:11.705Z,12.32
2022-12-12T03:58:47.232Z,12.98
2022-12-12T04:01:15.143Z,12.15
2022-12-12T04:04:09.672Z,12.35
2022-12-12T04:06:41.988Z,12.88
2022-12-12T04:09:48.483Z,13.15
2022-12-12T04:12:37.697Z,13.00
2022-12-12T04:15:12.330Z,11.75
2022-12-12T04:17:49.544Z,12.88
2022-12-12T04:20:45.743Z,12.45
2022-12-12T04:23:27.377Z,13.23
2022-12-12T04:26:12.610Z,13.90
2022-12-12T04:28:44.158Z,14.13
2022-12-12T04:31:12.977Z,13.35
2022-12-12T04:33:45.778Z,12.75
2022-12-12T04:36:16.347Z,13.13
2022-12-12T04:38:46.678Z,13.75
2022-12-12T04:41:16.435Z,13.38
2022-12-12T04:46:20.219Z,12.77
2022-12-12T04:48:53.702Z,12.57
2022-12-12T04:51:29.788Z,13.43
2022-12-12T04:54:13.561Z,14.10
2022-12-12T04:56:45.492Z,14.23
2022-12-12T04:59:12.744Z,14.45
2022-12-12T05:02:02.650Z,12.80
2022-12-12T05:04:43.611Z,13.68
2022-12-12T05:07:20.073Z,13.68
2022-12-12T05:09:48.238Z,13.13
2022-12-12T05:12:16.385Z,13.40
2022-12-12T05:14:43.122Z,13.30
2022-12-12T05:17:13.905Z,14.25
2022-12-12T05:19:40.558Z,14.75
2022-12-12T05:22:07.222Z,14.82
2022-12-12T05:24:33.749Z,14.90
2022-12-12T05:27:00.722Z,16.35
2022-12-12T05:29:27.392Z,15.52
2022-12-12T05:31:53.975Z,14.73
2022-12-12T05:34:20.578Z,15.80
2022-12-12T05:36:48.096Z,16.70
2022-12-12T05:39:14.718Z,16.92
2022-12-12T05:41:41.368Z,15.07
2022-12-12T05:44:07.947Z,16.85
2022-12-12T05:46:34.753Z,17.25
2022-12-12T05:49:02.047Z,19.58
2022-12-12T05:51:28.799Z,16.77
2022-12-12T05:53:55.595Z,16.08
2022-12-12T05:56:22.199Z,16.90
2022-12-12T05:58:49.152Z,17.88
2022-12-12T06:01:15.936Z,17.77
2022-12-12T06:03:42.646Z,16.15
2022-12-12T06:06:09.270Z,17.45
2022-12-12T06:08:36.006Z,15.23
2022-12-12T06:11:07.921Z,14.40
2022-12-12T06:13:34.944Z,15.63
2022-12-12T06:16:06.661Z,15.68
2022-12-12T06:18:33.430Z,14.23
2022-12-12T06:21:09.784Z,15.90
2022-12-12T06:23:40.643Z,15.82
2022-12-12T06:26:08.976Z,15.43
2022-12-12T06:28:36.305Z,16.20
2022-12-12T06:31:06.867Z,15.13
2022-12-12T06:33:38.435Z,14.48
2022-12-12T06:36:07.865Z,16.17
2022-12-12T06:38:35.634Z,14.27
2022-12-12T06:41:10.678Z,13.82
2022-12-12T06:43:37.240Z,15.07
2022-12-12T06:46:05.676Z,14.65
2022-12-12T06:48:34.204Z,15.57
2022-12-12T06:51:06.334Z,15.45
2022-12-12T06:53:33.087Z,14.95
2022-12-12T06:55:59.764Z,14.82
2022-12-12T06:58:26.399Z,13.65
2022-12-12T07:00:53.702Z,14.63
2022-12-12T07:03:20.392Z,14.45
2022-12-12T07:05:47.623Z,13.68
2022-12-12T07:08:15.368Z,14.98
2022-12-12T07:10:42.508Z,13.40
2022-12-12T07:13:09.214Z,13.18
2022-12-12T07:15:45.561Z,13.55
2022-12-12T07:18:13.140Z,12.25
2022-12-12T07:20:45.000Z,13.23
2022-12-12T07:23:12.236Z,13.35
2022-12-12T07:25:40.838Z,13.80
2022-12-12T07:28:08.453Z,13.23
2022-12-12T07:30:35.093Z,12.77
2022-12-12T07:33:01.682Z,14.20
2022-12-12T07:35:28.530Z,15.05
2022-12-12T07:37:56.520Z,14.27
2022-12-12T07:40:23.655Z,15.27
2022-12-12T07:42:50.377Z,14.55
2022-12-12T07:45:18.613Z,16.25
2022-12-12T07:47:45.648Z,15.70
2022-12-12T07:50:12.700Z,17.92
2022-12-12T07:52:39.310Z,16.17
2022-12-12T07:55:06.786Z,16.70
2022-12-12T07:57:33.639Z,15.05
2022-12-12T08:00:00.361Z,15.65
2022-12-12T08:02:26.984Z,14.45
2022-12-12T08:04:53.628Z,50.72
2022-12-12T08:07:20.299Z,18.08
2022-12-12T08:09:47.015Z,15.60
2022-12-12T08:12:13.746Z,16.63
2022-12-12T08:14:40.413Z,16.15
2022-12-12T08:17:07.135Z,15.52
2022-12-12T08:19:33.796Z,16.92
2022-12-12T08:22:00.392Z,15.52
2022-12-12T08:24:28.627Z,15.93
2022-12-12T08:26:55.708Z,14.93
2022-12-12T08:29:22.965Z,13.48
2022-12-12T08:31:50.085Z,13.38
2022-12-12T08:34:17.686Z,13.73
2022-12-12T08:36:45.208Z,14.13
2022-12-12T08:39:14.279Z,14.07
2022-12-12T08:41:42.868Z,15.38
2022-12-12T08:44:12.021Z,15.48
2022-12-12T08:46:39.450Z,14.27
2022-12-12T08:49:06.383Z,13.95
2022-12-12T08:51:34.182Z,13.48
2022-12-12T08:54:00.861Z,14.07
2022-12-12T08:56:27.578Z,14.40
2022-12-12T08:58:54.443Z,14.57
2022-12-12T09:01:23.888Z,14.55
2022-12-12T09:03:51.740Z,15.20
2022-12-12T09:06:18.982Z,13.18
2022-12-12T09:08:46.325Z,14.55
2022-12-12T09:11:13.191Z,16.42
2022-12-12T09:13:40.595Z,14.63
2022-12-12T09:16:09.011Z,15.73
2022-12-12T09:18:36.948Z,15.15
2022-12-12T09:21:04.406Z,15.85
2022-12-12T09:23:31.316Z,14.93
2022-12-12T09:25:57.922Z,17.70
2022-12-12T09:28:26.230Z,16.98
2022-12-12T09:30:52.928Z,16.27
2022-12-12T09:33:19.865Z,15.70
2022-12-12T09:35:46.403Z,15.88
2022-12-12T09:38:14.831Z,15.57
2022-12-12T09:41:20.321Z,17.02
2022-12-12T09:43:59.825Z,16.30
2022-12-12T09:46:47.189Z,16.83
2022-12-12T09:49:27.404Z,17.30
2022-12-12T09:51:55.213Z,21.38
2022-12-12T09:54:25.544Z,15.88
2022-12-12T09:57:32.804Z,17.95
2022-12-12T10:00:05.440Z,17.08
2022-12-12T10:02:56.618Z,17.98
2022-12-12T10:05:41.275Z,17.10
2022-12-12T10:08:40.170Z,17.38
2022-12-12T10:11:32.979Z,17.25
2022-12-12T10:14:02.726Z,17.83
2022-12-12T10:19:09.073Z,18.30
2022-12-12T10:21:40.781Z,15.98
2022-12-12T10:24:30.246Z,17.40
2022-12-12T10:26:58.476Z,18.65
2022-12-12T10:29:26.553Z,17.95
2022-12-12T10:32:08.021Z,17.38
2022-12-12T10:34:51.653Z,17.38
2022-12-12T10:37:46.544Z,18.45
2022-12-12T10:40:41.240Z,18.92
2022-12-12T10:43:20.073Z,18.98
2022-12-12T10:46:11.818Z,15.77
2022-12-12T10:48:39.875Z,20.75
2022-12-12T10:51:11.984Z,20.15
2022-12-12T10:53:42.129Z,19.13
2022-12-12T10:56:13.324Z,19.80
2022-12-12T10:58:52.130Z,19.65
2022-12-12T11:01:38.377Z,20.80
2022-12-12T11:04:08.901Z,18.23
2022-12-12T11:06:45.156Z,20.33
2022-12-12T11:09:15.105Z,19.73
2022-12-12T11:12:05.343Z,21.08
2022-12-12T11:14:34.358Z,19.70
2022-12-12T11:17:01.111Z,19.67
2022-12-12T11:19:35.773Z,19.73
2022-12-12T11:22:04.795Z,18.38
2022-12-12T11:24:34.846Z,18.75
2022-12-12T11:27:05.679Z,20.30
2022-12-12T11:29:44.352Z,20.10
2022-12-12T11:32:37.713Z,18.85
2022-12-12T11:35:21.931Z,19.23
2022-12-12T11:37:51.427Z,19.13
2022-12-12T11:40:33.786Z,17.08
2022-12-12T11:43:26.217Z,17.55
2022-12-12T11:46:08.175Z,17.85
2022-12-12T11:48:36.784Z,18.95
2022-12-12T11:51:03.676Z,17.88
2022-12-12T11:53:35.177Z,16.48
2022-12-12T11:56:23.570Z,14.73
2022-12-12T11:59:18.172Z,15.05
2022-12-12T12:01:59.938Z,12.75
2022-12-12T12:04:51.274Z,27.60
2022-12-12T12:07:42.364Z,17.23
2022-12-12T12:10:24.012Z,14.45
2022-12-12T12:13:12.127Z,15.40
2022-12-12T12:16:20.674Z,17.92
2022-12-12T12:19:18.398Z,17.52
2022-12-12T12:22:16.083Z,16.63
2022-12-12T12:24:48.679Z,17.10
2022-12-12T12:27:45.278Z,15.68
2022-12-12T12:30:18.161Z,16.10
2022-12-12T12:32:57.028Z,14.73
2022-12-12T12:35:37.796Z,15.10
2022-12-12T12:38:25.868Z,14.52
2022-12-12T12:41:20.545Z,12.88
2022-12-12T12:44:03.831Z,14.23
2022-12-12T12:47:05.552Z,15.70
2022-12-12T12:49:53.162Z,14.32
2022-12-12T12:52:31.225Z,15.63
2022-12-12T12:54:59.708Z,13.68
2022-12-12T12:57:39.202Z,16.58
2022-12-12T13:00:20.773Z,14.23
2022-12-12T13:02:56.544Z,14.98
2022-12-12T13:05:36.553Z,13.55
2022-12-12T13:08:06.182Z,15.23
2022-12-12T13:10:33.612Z,13.32
2022-12-12T13:13:15.173Z,13.10
2022-12-12T13:15:46.667Z,14.82
2022-12-12T13:18:15.655Z,11.77
2022-12-12T13:20:49.765Z,13.77
2022-12-12T13:23:16.422Z,15.48
2022-12-12T13:26:02.838Z,12.32
2022-12-12T13:28:36.562Z,13.77
2022-12-12T13:31:13.246Z,13.05
2022-12-12T13:33:49.439Z,13.93
2022-12-12T13:36:30.162Z,14.55
2022-12-12T13:39:00.088Z,14.20
2022-12-12T13:41:27.222Z,13.10
2022-12-12T13:44:00.047Z,12.18
2022-12-12T13:46:27.321Z,12.30
2022-12-12T13:49:10.586Z,12.98
2022-12-12T13:51:40.729Z,10.80
2022-12-12T13:54:14.970Z,11.25
2022-12-12T13:56:45.800Z,9.50
2022-12-12T13:59:27.715Z,8.85
2022-12-12T14:02:00.903Z,8.95
2022-12-12T14:04:32.056Z,10.48
2022-12-12T14:07:04.034Z,11.93
2022-12-12T14:09:47.669Z,10.93
2022-12-12T14:12:21.995Z,10.38
2022-12-12T14:15:21.334Z,8.80
2022-12-12T14:17:56.247Z,9.48
2022-12-12T14:20:31.047Z,8.30
2022-12-12T14:23:09.247Z,11.52
2022-12-12T14:25:38.583Z,12.40
2022-12-12T14:28:25.256Z,12.68
2022-12-12T14:30:59.305Z,11.95
2022-12-12T14:33:49.293Z,13.23
2022-12-12T14:36:37.647Z,11.23
2022-12-12T14:39:07.230Z,11.70
2022-12-12T14:41:37.518Z,11.35
2022-12-12T14:44:37.261Z,12.30
2022-12-12T14:47:07.551Z,11.60
2022-12-12T14:49:34.145Z,11.13
2022-12-12T14:52:01.101Z,9.82
2022-12-12T14:54:28.390Z,10.23
2022-12-12T14:57:03.950Z,10.55
2022-12-12T14:59:38.016Z,10.38
2022-12-12T15:02:25.887Z,9.95
2022-12-12T15:05:04.198Z,11.32
2022-12-12T15:07:38.306Z,12.43
2022-12-12T15:10:27.845Z,12.32
2022-12-12T15:12:54.647Z,11.73
2022-12-12T15:15:27.612Z,11.82
2022-12-12T15:17:56.765Z,11.88
2022-12-12T15:20:26.642Z,12.57
2022-12-12T15:23:00.083Z,13.55
2022-12-12T15:25:30.766Z,11.75
2022-12-12T15:27:57.896Z,11.35
2022-12-12T15:30:33.619Z,12.50
2022-12-12T15:33:02.905Z,13.55
2022-12-12T15:35:29.666Z,13.23
2022-12-12T15:38:08.341Z,13.02
2022-12-12T15:40:39.613Z,12.73
2022-12-12T15:43:15.394Z,12.70
2022-12-12T15:45:46.623Z,13.40
2022-12-12T15:48:17.527Z,14.93
2022-12-12T15:50:44.038Z,15.02
2022-12-12T15:53:26.361Z,14.80
2022-12-12T15:56:14.445Z,13.05
2022-12-12T15:58:44.165Z,14.07
2022-12-12T16:04:08.551Z,14.07
2022-12-12T16:06:48.369Z,13.15
2022-12-12T16:09:21.175Z,14.35
2022-12-12T16:11:58.673Z,13.45
2022-12-12T16:14:41.611Z,13.55
2022-12-12T16:17:16.182Z,14.68
2022-12-12T16:20:01.519Z,14.15
2022-12-12T16:22:44.670Z,15.18
2022-12-12T16:25:33.839Z,15.07
2022-12-12T16:28:12.463Z,13.75
2022-12-12T16:30:41.840Z,13.60
2022-12-12T16:33:23.027Z,14.07
2022-12-12T16:35:50.776Z,13.98
2022-12-12T16:38:18.426Z,15.07
2022-12-12T16:40:47.517Z,13.13
2022-12-12T16:43:17.888Z,15.18
2022-12-12T16:45:44.667Z,10.43
2022-12-12T16:48:22.952Z,14.68
2022-12-12T16:50:52.715Z,14.75
2022-12-12T16:55:49.617Z,14.10
2022-12-12T16:58:17.079Z,14.07
2022-12-12T17:00:45.096Z,14.52
2022-12-12T17:03:14.954Z,13.45
2022-12-12T17:08:09.042Z,13.93
2022-12-12T17:10:36.576Z,13.75
2022-12-12T17:13:12.684Z,15.55
2022-12-12T17:15:39.256Z,14.05
2022-12-12T17:18:05.851Z,14.73
2022-12-12T17:20:37.619Z,14.30
2022-12-12T17:23:27.951Z,14.77
2022-12-12T17:26:00.744Z,15.02
2022-12-12T17:28:30.683Z,14.32
2022-12-12T17:30:57.390Z,14.30
2022-12-12T17:33:24.019Z,14.25
2022-12-12T17:36:01.793Z,15.93
2022-12-12T17:38:30.528Z,15.90
2022-12-12T17:40:57.855Z,11.90
2022-12-12T17:43:25.634Z,14.23
2022-12-12T17:46:05.137Z,15.15
2022-12-12T17:51:11.600Z,15.35
2022-12-12T17:53:39.270Z,16.27
2022-12-12T17:56:11.780Z,16.15
2022-12-12T17:58:41.445Z,15.90
2022-12-12T18:01:11.950Z,16.20
2022-12-12T18:03:38.825Z,17.45
2022-12-12T18:06:06.161Z,16.98
2022-12-12T18:08:33.735Z,17.95
2022-12-12T18:11:00.692Z,15.60
2022-12-12T18:13:54.735Z,16.23
2022-12-12T18:16:23.784Z,16.65
2022-12-12T18:18:54.244Z,13.27
2022-12-12T18:24:21.068Z,16.50
2022-12-12T18:26:56.082Z,12.38
2022-12-12T18:29:26.200Z,15.40
2022-12-12T18:31:55.833Z,15.25
2022-12-12T18:34:26.263Z,15.48
2022-12-12T18:36:54.073Z,16.38
2022-12-12T18:39:20.814Z,16.13
2022-12-12T18:41:47.821Z,17.33
2022-12-12T18:44:15.622Z,16.92
2022-12-12T18:46:43.675Z,17.25
2022-12-12T18:49:15.692Z,16.75
2022-12-12T18:51:43.529Z,17.83
2022-12-12T18:54:15.516Z,16.75
2022-12-12T18:56:44.766Z,16.52
2022-12-12T18:59:15.505Z,16.58
2022-12-12T19:01:45.724Z,15.23
2022-12-12T19:04:22.902Z,15.32
2022-12-12T19:06:51.784Z,13.95
2022-12-12T19:09:19.999Z,14.80
2022-12-12T19:11:47.374Z,14.40
2022-12-12T19:14:16.055Z,14.70
2022-12-12T19:16:44.081Z,15.02
2022-12-12T19:19:13.530Z,15.52
2022-12-12T19:21:41.447Z,16.25
2022-12-12T19:24:10.487Z,15.48
2022-12-12T19:26:39.496Z,14.50
2022-12-12T19:29:10.574Z,11.98
2022-12-12T19:31:37.593Z,14.80
2022-12-12T19:34:06.352Z,16.00
2022-12-12T19:36:44.821Z,16.48
2022-12-12T19:39:14.083Z,15.43
2022-12-12T19:41:41.696Z,16.20
2022-12-12T19:44:12.582Z,18.40
2022-12-12T19:46:46.317Z,15.75
2022-12-12T19:49:15.703Z,16.65
2022-12-12T19:51:45.791Z,18.55
2022-12-12T19:54:15.908Z,15.25
2022-12-12T19:56:44.597Z,18.13
2022-12-12T19:59:17.030Z,13.77
2022-12-12T20:01:44.069Z,18.23
2022-12-12T20:04:22.726Z,16.75
2022-12-12T20:06:51.708Z,16.45
2022-12-12T20:09:26.032Z,17.88
2022-12-12T20:11:55.719Z,18.75
2022-12-12T20:16:51.922Z,15.88
2022-12-12T20:19:19.313Z,15.88
2022-12-12T20:22:05.918Z,15.63
2022-12-12T20:24:33.732Z,13.32
2022-12-12T20:27:03.698Z,16.23
2022-12-12T20:29:31.659Z,16.27
2022-12-12T20:31:59.861Z,16.15
2022-12-12T20:34:30.004Z,15.25
2022-12-12T20:36:59.380Z,15.05
2022-12-12T20:39:26.286Z,16.65
2022-12-12T20:41:54.002Z,16.38
2022-12-12T20:44:23.361Z,17.35
2022-12-12T20:46:51.034Z,14.68
2022-12-12T20:49:20.273Z,15.55
2022-12-12T20:51:58.349Z,15.43
2022-12-12T20:54:29.691Z,14.77
2022-12-12T20:57:03.153Z,14.10
2022-12-12T20:59:30.304Z,14.63
2022-12-12T21:01:57.032Z,14.50
2022-12-12T21:04:24.316Z,15.95
2022-12-12T21:06:52.005Z,16.45
2022-12-12T21:09:25.830Z,14.43
2022-12-12T21:11:58.229Z,14.70
2022-12-12T21:14:27.388Z,15.10
2022-12-12T21:16:54.461Z,15.73
2022-12-12T21:19:25.398Z,14.65
2022-12-12T21:21:53.425Z,14.98
2022-12-12T21:24:24.293Z,16.00
2022-12-12T21:29:20.236Z,12.23
2022-12-12T21:31:51.924Z,15.80
2022-12-12T21:34:23.406Z,16.20
2022-12-12T21:37:00.436Z,15.73
2022-12-12T21:39:29.152Z,16.80
2022-12-12T21:41:56.668Z,17.15
2022-12-12T21:44:24.590Z,17.02
2022-12-12T21:46:51.708Z,17.15
2022-12-12T21:49:28.264Z,17.80
2022-12-12T21:51:59.747Z,16.95
2022-12-12T21:54:29.287Z,16.27
2022-12-12T21:57:03.218Z,17.25
2022-12-12T21:59:30.417Z,16.35
2022-12-12T22:02:00.190Z,16.85
2022-12-12T22:04:32.788Z,17.63
2022-12-12T22:07:02.010Z,16.50
2022-12-12T22:09:29.119Z,17.27
2022-12-12T22:12:03.133Z,19.48
2022-12-12T22:14:31.561Z,18.58
2022-12-12T22:16:58.739Z,16.58
2022-12-12T22:19:25.645Z,16.38
2022-12-12T22:21:55.327Z,16.88
2022-12-12T22:24:23.306Z,18.17
2022-12-12T22:26:50.776Z,17.30
2022-12-12T22:29:20.113Z,17.77
2022-12-12T22:31:50.369Z,18.25
2022-12-12T22:34:22.471Z,17.73
2022-12-12T22:36:53.847Z,18.10
2022-12-12T22:39:26.301Z,17.60
2022-12-12T22:41:55.393Z,17.58
2022-12-12T22:44:27.760Z,15.82
2022-12-12T22:46:55.868Z,14.85
2022-12-12T22:49:25.945Z,14.10
2022-12-12T22:51:54.649Z,14.57
2022-12-12T22:54:21.562Z,15.05
2022-12-12T22:56:51.296Z,14.68
2022-12-12T22:59:18.135Z,14.90
2022-12-12T23:01:44.891Z,13.70
2022-12-12T23:04:13.411Z,13.07
2022-12-12T23:06:41.376Z,11.80
2022-12-12T23:09:18.339Z,12.90
2022-12-12T23:11:46.129Z,12.48
2022-12-12T23:14:16.195Z,11.90
2022-12-12T23:16:44.341Z,12.73
2022-12-12T23:19:14.739Z,12.38
2022-12-12T23:21:42.067Z,12.43
2022-12-12T23:24:12.107Z,11.02
2022-12-12T23:26:39.169Z,11.50
2022-12-12T23:29:09.354Z,11.07
2022-12-12T23:31:37.953Z,10.57
2022-12-12T23:34:09.397Z,10.23
2022-12-12T23:36:38.679Z,10.13
2022-12-12T23:39:15.315Z,10.68
2022-12-12T23:41:46.730Z,9.82
2022-12-12T23:44:15.465Z,10.25
2022-12-12T23:46:47.261Z,9.48
2022-12-12T23:49:20.397Z,9.70
2022-12-12T23:51:50.328Z,11.02
2022-12-12T23:54:20.059Z,14.52
2022-12-12T23:56:50.449Z,12.55
2022-12-12T23:59:18.948Z,12.02
